createdAt,value
2019-02-07T00:00:56.026Z,-4.03
2019-02-07T00:03:25.588Z,-4.05
2019-02-07T00:05:55.131Z,-3.87
2019-02-07T00:08:24.807Z,-4.09
2019-02-07T00:10:54.319Z,-3.86
2019-02-07T00:13:23.948Z,-3.83
2019-02-07T00:15:54.721Z,-3.86
2019-02-07T00:18:24.228Z,-3.93
2019-02-07T00:20:53.822Z,-4.01
2019-02-07T00:23:42.713Z,-4.07
2019-02-07T00:26:12.260Z,-4.02
2019-02-07T00:28:41.839Z,-3.99
2019-02-07T00:31:11.417Z,-3.97
2019-02-07T00:33:41.197Z,-3.88
2019-02-07T00:36:10.720Z,-4.10
2019-02-07T00:38:40.265Z,-4.14
2019-02-07T00:41:09.781Z,-3.99
2019-02-07T00:43:39.365Z,-4.10
2019-02-07T00:46:08.896Z,-3.77
2019-02-07T00:48:58.401Z,-3.98
2019-02-07T00:51:27.903Z,-4.65
2019-02-07T00:53:57.442Z,-3.95
2019-02-07T00:56:27.001Z,-3.87
2019-02-07T00:58:56.560Z,-3.96
2019-02-07T01:01:26.445Z,-4.19
2019-02-07T01:03:55.946Z,-3.89
2019-02-07T01:06:25.542Z,-3.93
2019-02-07T01:08:55.192Z,-4.16
2019-02-07T01:11:25.114Z,-4.36
2019-02-07T01:13:54.649Z,-4.00
2019-02-07T01:16:43.507Z,-4.10
2019-02-07T01:19:32.389Z,-4.15
2019-02-07T01:22:12.938Z,-3.88
2019-02-07T01:24:53.383Z,-3.89
2019-02-07T01:27:42.260Z,-3.81
2019-02-07T01:30:25.994Z,-3.68
2019-02-07T01:33:15.663Z,-3.92
2019-02-07T01:35:58.476Z,-3.79
2019-02-07T01:38:27.989Z,-4.66
2019-02-07T01:40:57.657Z,-3.63
2019-02-07T01:46:27.951Z,-3.73
2019-02-07T01:48:57.485Z,-3.82
2019-02-07T01:51:27.098Z,-3.88
2019-02-07T01:53:57.000Z,-4.00
2019-02-07T01:56:26.619Z,-3.86
2019-02-07T01:58:56.111Z,-3.93
2019-02-07T02:01:25.669Z,-3.83
2019-02-07T02:03:55.172Z,-3.99
2019-02-07T02:07:03.150Z,-4.08
2019-02-07T02:09:32.812Z,-4.13
2019-02-07T02:12:02.467Z,-4.13
2019-02-07T02:14:32.044Z,-4.44
2019-02-07T02:17:02.506Z,-4.23
2019-02-07T02:19:32.035Z,-4.22
2019-02-07T02:22:01.554Z,-4.21
2019-02-07T02:24:31.061Z,-4.35
2019-02-07T02:27:00.659Z,-4.48
2019-02-07T02:29:30.967Z,-4.48
2019-02-07T02:32:00.676Z,-4.53
2019-02-07T02:34:30.207Z,-4.53
2019-02-07T02:36:59.746Z,-4.34
2019-02-07T02:39:29.482Z,-4.31
2019-02-07T02:41:59.275Z,-4.47
2019-02-07T02:44:28.853Z,-4.53
2019-02-07T02:46:58.396Z,-4.37
2019-02-07T02:49:27.890Z,-4.40
2019-02-07T02:51:57.418Z,-4.06
2019-02-07T02:54:38.415Z,-4.22
2019-02-07T02:57:07.986Z,-4.37
2019-02-07T02:59:37.595Z,-4.45
2019-02-07T03:02:14.722Z,-4.39
2019-02-07T03:04:45.929Z,-4.73
2019-02-07T03:07:17.204Z,-4.75
2019-02-07T03:10:06.958Z,-4.86
2019-02-07T03:12:48.040Z,-4.85
2019-02-07T03:15:19.232Z,-5.01
2019-02-07T03:17:50.787Z,-4.88
2019-02-07T03:23:14.056Z,-5.23
2019-02-07T03:25:47.990Z,-5.10
2019-02-07T03:28:21.779Z,-4.91
2019-02-07T03:30:52.940Z,-5.17
2019-02-07T03:33:35.943Z,-5.47
2019-02-07T03:36:13.077Z,-5.43
2019-02-07T03:38:49.988Z,-5.23
2019-02-07T03:41:36.203Z,-5.09
2019-02-07T03:44:19.698Z,-5.34
2019-02-07T03:46:51.098Z,-5.42
2019-02-07T03:49:25.264Z,-5.42
2019-02-07T03:52:33.221Z,-5.43
2019-02-07T03:55:08.627Z,-5.67
2019-02-07T03:57:54.678Z,-5.63
2019-02-07T04:00:37.396Z,-5.76
2019-02-07T04:03:14.422Z,-5.69
2019-02-07T04:06:01.670Z,-5.60
2019-02-07T04:08:44.546Z,-5.71
2019-02-07T04:11:33.833Z,-5.83
2019-02-07T04:14:08.105Z,-5.97
2019-02-07T04:16:39.240Z,-6.16
2019-02-07T04:19:14.422Z,-6.06
2019-02-07T04:21:45.583Z,-6.03
2019-02-07T04:24:52.566Z,-5.73
2019-02-07T04:27:26.510Z,-5.76
2019-02-07T04:30:13.241Z,-5.99
2019-02-07T04:33:00.371Z,-5.71
2019-02-07T04:35:49.097Z,-5.74
2019-02-07T04:38:29.330Z,-6.03
2019-02-07T04:41:12.586Z,-5.88
2019-02-07T04:43:43.738Z,-5.66
2019-02-07T04:46:31.646Z,-5.87
2019-02-07T04:49:05.540Z,-5.84
2019-02-07T04:51:36.817Z,-5.82
2019-02-07T04:54:17.467Z,-5.95
2019-02-07T04:57:03.946Z,-6.11
2019-02-07T04:59:40.821Z,-5.72
2019-02-07T05:04:54.791Z,-6.24
2019-02-07T05:07:42.028Z,-6.25
2019-02-07T05:10:12.773Z,-6.11
2019-02-07T05:12:59.557Z,-6.14
2019-02-07T05:15:33.720Z,-6.50
2019-02-07T05:18:10.593Z,-6.54
2019-02-07T05:20:42.055Z,-6.46
2019-02-07T05:23:13.225Z,-6.46
2019-02-07T05:25:47.071Z,-6.85
2019-02-07T05:28:30.267Z,-6.99
2019-02-07T05:31:05.171Z,-6.80
2019-02-07T05:34:13.056Z,-6.69
2019-02-07T05:36:57.198Z,-6.57
2019-02-07T05:39:44.275Z,-6.69
2019-02-07T05:42:52.116Z,-7.05
2019-02-07T05:45:39.262Z,-7.44
2019-02-07T05:48:16.373Z,-7.03
2019-02-07T05:51:11.005Z,-7.29
2019-02-07T05:54:12.839Z,-7.32
2019-02-07T05:57:06.481Z,-7.25
2019-02-07T06:02:37.284Z,-6.96
2019-02-07T06:05:11.838Z,-7.14
2019-02-07T06:07:54.751Z,-7.27
2019-02-07T06:10:41.003Z,-7.02
2019-02-07T06:13:14.732Z,-7.47
2019-02-07T06:16:02.045Z,-7.30
2019-02-07T06:18:31.316Z,-7.53
2019-02-07T06:21:05.376Z,-7.29
2019-02-07T06:23:36.535Z,-7.43
2019-02-07T06:26:22.594Z,-7.28
2019-02-07T06:28:57.905Z,-7.41
2019-02-07T06:31:32.031Z,-7.41
2019-02-07T06:34:28.620Z,-7.36
2019-02-07T06:36:57.221Z,-7.40
2019-02-07T06:39:28.695Z,-7.50
2019-02-07T06:42:08.530Z,-7.11
2019-02-07T06:44:51.128Z,-7.33
2019-02-07T06:47:38.373Z,-7.33
2019-02-07T06:50:18.898Z,-7.46
2019-02-07T06:52:56.721Z,-7.27
2019-02-07T06:55:34.798Z,-7.01
2019-02-07T06:58:21.990Z,-6.63
2019-02-07T07:00:51.344Z,-6.76
2019-02-07T07:03:35.575Z,-6.88
2019-02-07T07:06:07.780Z,-6.60
2019-02-07T07:08:43.087Z,-6.56
2019-02-07T07:11:14.263Z,-6.18
2019-02-07T07:13:45.427Z,-5.98
2019-02-07T07:16:16.572Z,-5.78
2019-02-07T07:18:47.744Z,-5.48
2019-02-07T07:21:36.971Z,-5.44
2019-02-07T07:24:23.171Z,-5.46
2019-02-07T07:27:31.355Z,-5.38
2019-02-07T07:33:02.567Z,-5.54
2019-02-07T07:35:36.436Z,-4.86
2019-02-07T07:38:07.740Z,-4.40
2019-02-07T07:40:37.389Z,-3.84
2019-02-07T07:43:11.631Z,-3.64
2019-02-07T07:46:19.514Z,-3.15
2019-02-07T07:52:12.693Z,-3.01
2019-02-07T07:54:53.002Z,-2.76
2019-02-07T07:57:40.406Z,-2.48
2019-02-07T08:00:15.510Z,-2.43
2019-02-07T08:03:02.521Z,-1.45
2019-02-07T08:06:10.443Z,-0.94
2019-02-07T08:08:54.209Z,-1.31
2019-02-07T08:11:42.754Z,-0.49
2019-02-07T08:14:29.837Z,0.32
2019-02-07T08:17:18.840Z,0.15
2019-02-07T08:20:47.599Z,0.12
2019-02-07T08:23:18.755Z,0.45
2019-02-07T08:26:26.622Z,1.34
2019-02-07T08:29:34.580Z,1.64
2019-02-07T08:32:16.990Z,1.82
2019-02-07T08:35:45.773Z,2.21
2019-02-07T08:38:32.629Z,3.61
2019-02-07T08:41:07.346Z,3.93
2019-02-07T08:43:38.490Z,3.56
2019-02-07T08:46:10.475Z,3.15
2019-02-07T08:48:56.420Z,3.16
2019-02-07T08:51:43.528Z,4.36
2019-02-07T08:54:30.684Z,4.94
2019-02-07T08:57:01.900Z,5.07
2019-02-07T09:00:09.774Z,6.44
2019-02-07T09:02:54.266Z,7.42
2019-02-07T09:05:34.195Z,5.96
2019-02-07T09:08:10.907Z,4.83
2019-02-07T09:10:51.076Z,3.98
2019-02-07T09:13:31.032Z,3.77
2019-02-07T09:16:07.910Z,2.07
2019-02-07T09:18:54.174Z,2.09
2019-02-07T09:21:40.354Z,2.25
2019-02-07T09:24:24.184Z,1.73
2019-02-07T09:27:04.233Z,1.84
2019-02-07T09:29:44.389Z,2.57
2019-02-07T09:32:18.120Z,1.76
2019-02-07T09:34:52.021Z,1.83
2019-02-07T09:37:34.962Z,1.65
2019-02-07T09:40:25.074Z,1.92
2019-02-07T09:43:12.102Z,1.56
2019-02-07T09:45:55.397Z,1.22
2019-02-07T09:48:33.417Z,0.65
2019-02-07T09:51:13.665Z,0.28
2019-02-07T09:53:53.872Z,0.22
2019-02-07T09:56:30.464Z,0.75
2019-02-07T09:59:17.466Z,-0.15
2019-02-07T10:01:57.714Z,-0.27
2019-02-07T10:04:40.330Z,0.48
2019-02-07T10:07:17.204Z,0.63
2019-02-07T10:10:46.243Z,0.90
2019-02-07T10:13:26.756Z,1.22
2019-02-07T10:16:14.247Z,1.27
2019-02-07T10:19:22.133Z,1.26
2019-02-07T10:22:02.222Z,0.86
2019-02-07T10:24:33.502Z,0.87
2019-02-07T10:27:17.286Z,2.51
2019-02-07T10:29:48.443Z,2.33
2019-02-07T10:32:28.447Z,2.44
2019-02-07T10:34:59.679Z,2.74
2019-02-07T10:37:33.886Z,2.69
2019-02-07T10:40:23.958Z,2.94
2019-02-07T10:43:00.817Z,2.38
2019-02-07T10:45:32.750Z,3.21
2019-02-07T10:48:20.286Z,3.28
2019-02-07T10:51:09.606Z,3.27
2019-02-07T10:53:40.721Z,3.35
2019-02-07T10:56:17.795Z,3.46
2019-02-07T10:59:03.542Z,3.45
2019-02-07T11:01:44.240Z,3.55
2019-02-07T11:04:30.197Z,3.34
2019-02-07T11:07:07.315Z,2.70
2019-02-07T11:09:38.449Z,2.90
2019-02-07T11:12:09.595Z,3.32
2019-02-07T11:14:43.144Z,4.27
2019-02-07T11:17:14.288Z,4.03
2019-02-07T11:19:56.909Z,3.45
2019-02-07T11:22:28.034Z,3.32
2019-02-07T11:24:59.279Z,3.62
2019-02-07T11:27:33.180Z,3.59
2019-02-07T11:30:11.509Z,3.49
2019-02-07T11:32:58.932Z,4.24
2019-02-07T11:35:45.922Z,4.76
2019-02-07T11:38:17.663Z,4.99
2019-02-07T11:40:48.875Z,4.38
2019-02-07T11:43:37.725Z,4.53
2019-02-07T11:46:07.089Z,4.39
2019-02-07T11:48:44.359Z,4.04
2019-02-07T11:51:15.598Z,4.34
2019-02-07T11:54:03.643Z,4.62
2019-02-07T11:57:11.717Z,5.27
2019-02-07T11:59:58.727Z,4.35
2019-02-07T12:02:45.868Z,4.30
2019-02-07T12:05:22.552Z,4.32
2019-02-07T12:08:02.391Z,4.39
2019-02-07T12:10:34.347Z,4.51
2019-02-07T12:13:23.757Z,4.55
2019-02-07T12:16:06.704Z,4.47
2019-02-07T12:18:46.543Z,4.74
2019-02-07T12:21:17.689Z,4.94
2019-02-07T12:23:54.350Z,4.68
2019-02-07T12:26:23.648Z,5.06
2019-02-07T12:29:10.586Z,5.22
2019-02-07T12:31:48.527Z,5.23
2019-02-07T12:34:35.766Z,5.24
2019-02-07T12:37:19.071Z,5.18
2019-02-07T12:40:08.467Z,5.13
2019-02-07T12:42:49.409Z,5.15
2019-02-07T12:45:20.726Z,4.84
2019-02-07T12:47:51.906Z,4.50
2019-02-07T12:50:40.012Z,4.88
2019-02-07T12:53:13.619Z,4.91
2019-02-07T12:55:52.175Z,4.93
2019-02-07T12:58:22.877Z,5.13
2019-02-07T13:00:54.163Z,5.45
2019-02-07T13:03:27.717Z,5.14
2019-02-07T13:06:14.720Z,4.83
2019-02-07T13:12:11.034Z,5.09
2019-02-07T13:14:54.055Z,4.93
2019-02-07T13:17:39.855Z,4.87
2019-02-07T13:20:16.204Z,5.01
2019-02-07T13:22:50.323Z,5.10
2019-02-07T13:25:21.495Z,5.74
2019-02-07T13:28:04.293Z,6.01
2019-02-07T13:30:44.286Z,5.98
2019-02-07T13:33:18.306Z,6.49
2019-02-07T13:35:47.584Z,6.09
2019-02-07T13:38:34.867Z,5.71
2019-02-07T13:41:21.971Z,5.60
2019-02-07T13:44:09.277Z,5.53
2019-02-07T13:46:56.217Z,5.54
2019-02-07T13:49:51.605Z,5.35
2019-02-07T13:52:30.909Z,5.71
2019-02-07T13:58:16.503Z,5.17
2019-02-07T14:00:50.588Z,5.63
2019-02-07T14:03:21.727Z,5.73
2019-02-07T14:06:02.007Z,5.90
2019-02-07T14:08:38.365Z,5.83
2019-02-07T14:11:18.344Z,5.90
2019-02-07T14:13:58.329Z,6.37
2019-02-07T14:16:41.544Z,6.12
2019-02-07T14:19:18.261Z,5.86
2019-02-07T14:21:51.948Z,6.24
2019-02-07T14:24:26.815Z,5.62
2019-02-07T14:27:13.793Z,5.69
2019-02-07T14:30:02.573Z,5.54
2019-02-07T14:32:33.765Z,5.40
2019-02-07T14:35:22.632Z,6.26
2019-02-07T14:38:09.659Z,5.28
2019-02-07T14:40:46.515Z,6.12
2019-02-07T14:43:20.461Z,6.14
2019-02-07T14:45:51.602Z,5.78
2019-02-07T14:48:22.819Z,5.35
2019-02-07T14:50:52.990Z,4.98
2019-02-07T14:53:24.063Z,5.20
2019-02-07T14:55:53.742Z,4.77
2019-02-07T14:58:23.257Z,5.32
2019-02-07T15:00:52.791Z,4.46
2019-02-07T15:03:22.307Z,4.23
2019-02-07T15:05:52.653Z,3.95
2019-02-07T15:08:22.270Z,3.81
2019-02-07T15:10:51.750Z,3.51
2019-02-07T15:13:21.290Z,3.95
2019-02-07T15:16:10.168Z,3.87
2019-02-07T15:18:59.071Z,3.46
2019-02-07T15:21:39.985Z,3.26
2019-02-07T15:24:22.958Z,4.00
2019-02-07T15:26:52.472Z,4.09
2019-02-07T15:29:22.145Z,4.65
2019-02-07T15:32:11.337Z,4.72
2019-02-07T15:35:00.223Z,4.33
2019-02-07T15:37:42.614Z,4.65
2019-02-07T15:40:17.159Z,3.74
2019-02-07T15:42:46.774Z,3.66
2019-02-07T15:45:16.500Z,3.64
2019-02-07T15:47:46.071Z,3.08
2019-02-07T15:50:22.808Z,2.65
2019-02-07T15:52:54.535Z,3.02
2019-02-07T15:55:43.439Z,3.28
2019-02-07T15:58:51.362Z,2.38
2019-02-07T16:01:22.663Z,3.27
2019-02-07T16:03:53.837Z,3.27
2019-02-07T16:06:23.405Z,2.87
2019-02-07T16:09:23.894Z,3.27
2019-02-07T16:11:53.476Z,3.45
2019-02-07T16:14:23.031Z,3.03
2019-02-07T16:16:52.680Z,2.94
2019-02-07T16:19:22.414Z,3.04
2019-02-07T16:21:51.963Z,2.65
2019-02-07T16:24:21.598Z,2.18
2019-02-07T16:26:51.189Z,2.21
2019-02-07T16:29:20.727Z,1.91
2019-02-07T16:31:50.287Z,2.23
2019-02-07T16:34:19.771Z,1.94
2019-02-07T16:36:49.639Z,2.03
2019-02-07T16:39:19.656Z,1.81
2019-02-07T16:41:49.370Z,1.64
2019-02-07T16:44:18.935Z,1.69
2019-02-07T16:46:48.507Z,1.68
2019-02-07T16:49:19.324Z,1.70
2019-02-07T16:52:08.258Z,2.36
2019-02-07T16:54:57.145Z,2.53
2019-02-07T16:57:26.624Z,2.52
2019-02-07T17:00:36.067Z,2.11
2019-02-07T17:03:37.512Z,2.03
2019-02-07T17:06:07.414Z,1.72
2019-02-07T17:08:36.919Z,1.63
2019-02-07T17:11:06.903Z,1.59
2019-02-07T17:13:36.526Z,1.57
2019-02-07T17:16:06.492Z,1.70
2019-02-07T17:18:36.016Z,1.73
2019-02-07T17:21:12.204Z,1.92
2019-02-07T17:23:38.105Z,2.25
2019-02-07T17:26:07.783Z,2.10
2019-02-07T17:28:37.292Z,3.01
2019-02-07T17:31:07.187Z,3.43
2019-02-07T17:33:36.671Z,3.60
2019-02-07T17:36:06.333Z,3.64
2019-02-07T17:38:36.205Z,3.72
2019-02-07T17:41:06.317Z,3.69
2019-02-07T17:43:35.833Z,3.63
2019-02-07T17:46:05.484Z,3.72
2019-02-07T17:48:35.125Z,3.43
2019-02-07T17:51:04.713Z,3.44
2019-02-07T17:53:34.572Z,3.37
2019-02-07T17:56:04.176Z,3.34
2019-02-07T17:58:33.766Z,3.39
2019-02-07T18:01:06.406Z,3.29
2019-02-07T18:03:37.249Z,3.32
2019-02-07T18:06:26.229Z,3.25
2019-02-07T18:08:55.714Z,3.85
2019-02-07T18:11:25.292Z,3.65
2019-02-07T18:13:54.877Z,3.57
2019-02-07T18:16:24.475Z,3.57
2019-02-07T18:18:54.329Z,3.54
2019-02-07T18:21:33.658Z,3.47
2019-02-07T18:23:56.399Z,3.40
2019-02-07T18:26:25.933Z,3.14
2019-02-07T18:28:55.463Z,2.94
2019-02-07T18:31:25.170Z,2.88
2019-02-07T18:33:54.679Z,2.67
2019-02-07T18:36:24.964Z,2.51
2019-02-07T18:38:54.455Z,2.37
2019-02-07T18:41:23.981Z,2.81
2019-02-07T18:43:53.541Z,2.96
2019-02-07T18:46:23.074Z,3.13
2019-02-07T18:48:53.077Z,2.82
2019-02-07T18:51:22.632Z,3.19
2019-02-07T18:53:52.108Z,3.09
2019-02-07T18:56:21.666Z,3.04
2019-02-07T18:58:51.169Z,3.08
2019-02-07T19:01:21.339Z,2.92
2019-02-07T19:03:51.018Z,3.14
2019-02-07T19:06:20.539Z,2.58
2019-02-07T19:08:50.089Z,2.56
2019-02-07T19:11:19.834Z,2.64
2019-02-07T19:13:49.580Z,2.92
2019-02-07T19:16:19.063Z,3.12
2019-02-07T19:18:48.888Z,3.12
2019-02-07T19:21:18.392Z,3.10
2019-02-07T19:23:47.928Z,3.19
2019-02-07T19:26:17.819Z,3.13
2019-02-07T19:28:47.359Z,3.08
2019-02-07T19:31:36.267Z,3.01
2019-02-07T19:34:25.181Z,2.89
2019-02-07T19:36:54.744Z,3.00
2019-02-07T19:39:24.235Z,3.00
2019-02-07T19:41:53.842Z,2.79
2019-02-07T19:44:23.363Z,2.59
2019-02-07T19:47:12.238Z,2.95
2019-02-07T19:49:41.890Z,2.42
2019-02-07T19:52:11.667Z,2.17
2019-02-07T19:54:41.195Z,2.21
2019-02-07T19:57:10.835Z,2.18
2019-02-07T19:59:40.360Z,2.68
2019-02-07T20:02:09.908Z,2.29
2019-02-07T20:04:58.765Z,2.17
2019-02-07T20:07:28.335Z,1.60
2019-02-07T20:09:57.829Z,2.61
2019-02-07T20:12:27.349Z,2.55
2019-02-07T20:14:56.911Z,2.45
2019-02-07T20:17:45.799Z,2.94
2019-02-07T20:20:17.512Z,2.81
2019-02-07T20:22:48.900Z,2.05
2019-02-07T20:25:20.553Z,2.10
2019-02-07T20:27:50.207Z,1.98
2019-02-07T20:30:58.822Z,1.88
2019-02-07T20:33:28.462Z,1.86
2019-02-07T20:35:57.952Z,1.97
2019-02-07T20:38:27.864Z,2.00
2019-02-07T20:40:57.398Z,1.93
2019-02-07T20:43:27.339Z,2.38
2019-02-07T20:45:56.865Z,2.45
2019-02-07T20:48:26.971Z,2.71
2019-02-07T20:50:57.715Z,2.32
2019-02-07T20:53:27.822Z,2.73
2019-02-07T20:55:57.355Z,2.78
2019-02-07T20:58:26.903Z,2.21
2019-02-07T21:00:56.423Z,2.06
2019-02-07T21:03:25.966Z,1.97
2019-02-07T21:05:55.559Z,2.00
2019-02-07T21:08:25.143Z,2.42
2019-02-07T21:10:54.618Z,2.46
2019-02-07T21:13:24.183Z,2.00
2019-02-07T21:15:53.723Z,1.84
2019-02-07T21:18:23.296Z,1.81
2019-02-07T21:20:52.786Z,1.82
2019-02-07T21:23:22.349Z,1.79
2019-02-07T21:25:53.027Z,1.83
2019-02-07T21:28:22.567Z,1.83
2019-02-07T21:30:52.127Z,2.40
2019-02-07T21:33:21.700Z,2.09
2019-02-07T21:35:51.214Z,1.83
2019-02-07T21:38:20.760Z,2.02
2019-02-07T21:40:50.357Z,2.38
2019-02-07T21:43:19.951Z,2.55
2019-02-07T21:45:49.490Z,2.88
2019-02-07T21:48:19.054Z,2.92
2019-02-07T21:50:48.559Z,2.97
2019-02-07T21:53:18.164Z,3.03
2019-02-07T21:55:47.651Z,3.10
2019-02-07T21:58:17.557Z,3.14
2019-02-07T22:00:47.637Z,3.03
2019-02-07T22:03:17.779Z,3.16
2019-02-07T22:05:47.292Z,2.97
2019-02-07T22:08:17.617Z,3.06
2019-02-07T22:10:47.184Z,2.83
2019-02-07T22:13:16.717Z,2.75
2019-02-07T22:15:46.201Z,2.90
2019-02-07T22:18:16.276Z,2.69
2019-02-07T22:20:45.859Z,2.66
2019-02-07T22:23:15.394Z,2.68
2019-02-07T22:25:44.996Z,2.66
2019-02-07T22:28:14.488Z,2.62
2019-02-07T22:30:44.465Z,2.58
2019-02-07T22:33:13.988Z,2.36
2019-02-07T22:35:43.501Z,2.37
2019-02-07T22:38:13.064Z,2.43
2019-02-07T22:40:42.645Z,2.29
2019-02-07T22:43:12.597Z,2.34
2019-02-07T22:45:42.104Z,2.28
2019-02-07T22:48:11.678Z,2.31
2019-02-07T22:50:41.219Z,2.42
2019-02-07T22:53:10.730Z,2.46
2019-02-07T22:55:59.972Z,2.63
2019-02-07T22:58:49.449Z,2.07
2019-02-07T23:01:23.574Z,2.53
2019-02-07T23:03:53.349Z,2.45
2019-02-07T23:06:22.964Z,2.58
2019-02-07T23:08:52.715Z,2.26
2019-02-07T23:11:22.818Z,2.07
2019-02-07T23:13:52.497Z,2.47
2019-02-07T23:16:22.119Z,2.54
2019-02-07T23:18:51.692Z,2.53
2019-02-07T23:21:21.381Z,2.52
2019-02-07T23:23:50.978Z,2.28
2019-02-07T23:26:20.463Z,2.52
2019-02-07T23:28:50.075Z,2.56
2019-02-07T23:31:19.566Z,2.35
2019-02-07T23:33:49.082Z,2.42
2019-02-07T23:36:18.617Z,2.55
2019-02-07T23:38:48.193Z,2.39
2019-02-07T23:41:17.842Z,2.74
2019-02-07T23:43:47.480Z,2.67
2019-02-07T23:46:17.067Z,2.38
2019-02-07T23:48:47.005Z,2.41
2019-02-07T23:51:16.528Z,2.54
2019-02-07T23:53:46.036Z,2.52
2019-02-07T23:56:15.542Z,2.48
2019-02-07T23:58:45.061Z,2.52
